Time,TemperatureF,DewpointF,PressureIn,WindDirection,WindDirectionDegrees,WindSpeedMPH,WindSpeedGustMPH,Humidity,HourlyPrecipIn,Conditions,Clouds,dailyrainin,SoftwareType,DateUTC
2013-10-11 00:01:00,47.5,44.7,29.62,WNW,300,0.0,0.0,90,0.00,,,0.00,VWS V12.07,2013-10-11 07:01:00,
2013-10-11 00:07:00,47.5,44.7,29.62,WNW,300,0.0,0.0,90,0.00,,,0.00,VWS V12.07,2013-10-11 07:07:00,
2013-10-11 00:12:00,47.3,44.5,29.62,WNW,301,0.0,0.0,90,0.00,,,0.00,VWS V12.07,2013-10-11 07:12:00,
2013-10-11 00:18:00,47.3,44.5,29.62,WNW,300,0.0,0.0,90,0.00,,,0.00,VWS V12.07,2013-10-11 07:18:00,
2013-10-11 00:24:00,47.1,44.3,29.62,WNW,300,0.0,0.0,90,0.00,,,0.00,VWS V12.07,2013-10-11 07:24:00,
2013-10-11 00:29:00,47.1,44.6,29.62,WNW,300,0.0,0.0,91,0.00,,,0.00,VWS V12.07,2013-10-11 07:29:00,
2013-10-11 00:34:00,46.9,44.5,29.62,WNW,300,0.0,0.0,91,0.00,,,0.00,VWS V12.07,2013-10-11 07:34:00,
2013-10-11 00:40:00,46.9,44.5,29.62,WNW,301,0.0,0.0,91,0.00,,,0.00,VWS V12.07,2013-10-11 07:40:00,
2013-10-11 00:46:00,47.1,44.6,29.62,WNW,301,0.0,0.0,91,0.00,,,0.00,VWS V12.07,2013-10-11 07:46:00,
2013-10-11 00:51:00,46.9,44.5,29.62,WNW,301,0.0,0.0,91,0.00,,,0.00,VWS V12.07,2013-10-11 07:51:00,
2013-10-11 00:57:00,46.9,44.5,29.62,WNW,300,0.0,0.0,91,0.00,,,0.00,VWS V12.07,2013-10-11 07:57:00,
2013-10-11 01:02:00,46.8,44.3,29.62,WNW,301,0.0,0.0,91,0.00,,,0.00,VWS V12.07,2013-10-11 08:02:00,
2013-10-11 01:08:00,46.4,43.9,29.62,WNW,300,0.0,0.0,91,0.00,,,0.00,VWS V12.07,2013-10-11 08:08:00,
2013-10-11 01:14:00,46.0,43.6,29.62,WNW,300,0.0,0.0,91,0.00,,,0.00,VWS V12.07,2013-10-11 08:14:00,
2013-10-11 01:19:00,45.7,43.2,29.62,WNW,301,0.0,0.0,91,0.00,,,0.00,VWS V12.07,2013-10-11 08:19:00,
2013-10-11 01:25:00,45.5,43.3,29.62,WNW,301,0.0,0.0,92,0.00,,,0.00,VWS V12.07,2013-10-11 08:25:00,
2013-10-11 01:30:00,45.5,43.3,29.62,WNW,300,0.0,0.0,92,0.00,,,0.00,VWS V12.07,2013-10-11 08:30:00,
2013-10-11 01:36:00,45.3,43.1,29.62,WNW,300,0.0,0.0,92,0.00,,,0.00,VWS V12.07,2013-10-11 08:36:00,
2013-10-11 01:41:00,45.3,43.1,29.62,WNW,300,0.0,0.0,92,0.00,,,0.00,VWS V12.07,2013-10-11 08:41:00,
2013-10-11 01:47:00,45.5,43.6,29.65,WNW,301,0.0,0.0,93,0.00,,,0.00,VWS V12.07,2013-10-11 08:47:00,
2013-10-11 01:52:00,45.7,43.8,29.65,WNW,300,0.0,0.0,93,0.00,,,0.00,VWS V12.07,2013-10-11 08:52:00,
2013-10-11 01:58:00,45.9,44.0,29.65,WNW,301,0.0,0.0,93,0.00,,,0.00,VWS V12.07,2013-10-11 08:58:00,
2013-10-11 02:04:00,46.0,44.1,29.65,WNW,300,0.0,0.0,93,0.00,,,0.00,VWS V12.07,2013-10-11 09:04:00,
2013-10-11 02:09:00,46.2,44.6,29.65,WNW,300,0.0,0.0,94,0.00,,,0.00,VWS V12.07,2013-10-11 09:09:00,
2013-10-11 02:14:00,46.6,45.0,29.65,WNW,301,0.0,0.0,94,0.00,,,0.00,VWS V12.07,2013-10-11 09:14:00,
2013-10-11 02:19:00,46.8,45.1,29.65,WNW,301,0.0,0.0,94,0.00,,,0.00,VWS V12.07,2013-10-11 09:19:00,
2013-10-11 02:25:00,46.9,45.3,29.65,WNW,301,0.0,0.0,94,0.00,,,0.00,VWS V12.07,2013-10-11 09:25:00,
2013-10-11 02:30:00,46.9,45.3,29.65,WNW,301,0.0,0.0,94,0.00,,,0.00,VWS V12.07,2013-10-11 09:30:00,
2013-10-11 02:36:00,47.1,45.5,29.65,WNW,300,0.0,0.0,94,0.00,,,0.00,VWS V12.07,2013-10-11 09:36:00,
2013-10-11 02:42:00,47.1,45.5,29.65,WNW,300,0.0,0.0,94,0.00,,,0.00,VWS V12.07,2013-10-11 09:42:00,
2013-10-11 02:47:00,46.9,45.3,29.65,WNW,301,0.0,0.0,94,0.00,,,0.00,VWS V12.07,2013-10-11 09:47:00,
2013-10-11 02:53:00,46.9,45.3,29.65,WNW,301,0.0,0.0,94,0.00,,,0.00,VWS V12.07,2013-10-11 09:53:00,
2013-10-11 02:58:00,46.9,45.3,29.65,WNW,300,0.0,0.0,94,0.00,,,0.00,VWS V12.07,2013-10-11 09:58:00,
2013-10-11 03:03:00,46.9,45.3,29.65,WNW,300,0.0,0.0,94,0.00,,,0.00,VWS V12.07,2013-10-11 10:03:00,
2013-10-11 03:09:00,47.1,45.5,29.65,WNW,301,0.0,0.0,94,0.00,,,0.00,VWS V12.07,2013-10-11 10:09:00,
2013-10-11 03:15:00,47.1,45.5,29.65,WNW,301,0.0,0.0,94,0.00,,,0.00,VWS V12.07,2013-10-11 10:15:00,
2013-10-11 03:21:00,47.1,45.5,29.65,WNW,301,0.0,0.0,94,0.00,,,0.00,VWS V12.07,2013-10-11 10:21:00,
2013-10-11 03:26:00,47.1,45.5,29.65,WNW,300,0.0,0.0,94,0.00,,,0.00,VWS V12.07,2013-10-11 10:26:00,
2013-10-11 03:32:00,47.1,45.5,29.65,WNW,301,0.0,0.0,94,0.00,,,0.00,VWS V12.07,2013-10-11 10:32:00,
2013-10-11 03:38:00,46.9,45.3,29.65,WNW,301,0.0,0.0,94,0.00,,,0.00,VWS V12.07,2013-10-11 10:38:00,
2013-10-11 03:43:00,46.9,45.3,29.65,WNW,301,0.0,0.0,94,0.00,,,0.00,VWS V12.07,2013-10-11 10:43:00,
2013-10-11 03:48:00,46.8,45.1,29.65,WNW,301,0.0,0.0,94,0.00,,,0.00,VWS V12.07,2013-10-11 10:48:00,
2013-10-11 03:54:00,46.6,45.0,29.65,WNW,301,0.0,0.0,94,0.00,,,0.00,VWS V12.07,2013-10-11 10:54:00,
2013-10-11 04:01:00,46.4,44.8,29.65,WNW,301,0.0,0.0,94,0.00,,,0.00,VWS V12.07,2013-10-11 11:01:00,
2013-10-11 04:06:00,46.4,44.8,29.65,WNW,300,0.0,0.0,94,0.00,,,0.00,VWS V12.07,2013-10-11 11:06:00,
2013-10-11 04:12:00,46.6,45.0,29.65,WNW,300,0.0,0.0,94,0.00,,,0.00,VWS V12.07,2013-10-11 11:12:00,
2013-10-11 04:17:00,46.6,45.0,29.65,WNW,301,0.0,0.0,94,0.00,,,0.00,VWS V12.07,2013-10-11 11:17:00,
2013-10-11 04:23:00,46.4,44.8,29.65,WNW,300,0.0,0.0,94,0.00,,,0.00,VWS V12.07,2013-10-11 11:23:00,
2013-10-11 04:29:00,46.4,44.8,29.65,WNW,300,0.0,0.0,94,0.00,,,0.00,VWS V12.07,2013-10-11 11:29:00,
2013-10-11 04:34:00,46.6,45.2,29.65,WNW,301,0.0,0.0,95,0.00,,,0.00,VWS V12.07,2013-10-11 11:34:00,
2013-10-11 04:40:00,46.6,45.2,29.65,WNW,300,0.0,0.0,95,0.00,,,0.00,VWS V12.07,2013-10-11 11:40:00,
2013-10-11 04:45:00,46.6,45.2,29.65,WNW,301,0.0,0.0,95,0.00,,,0.00,VWS V12.07,2013-10-11 11:45:00,
2013-10-11 04:51:00,46.8,45.4,29.65,WNW,300,0.0,0.0,95,0.00,,,0.00,VWS V12.07,2013-10-11 11:51:00,
2013-10-11 04:57:00,46.6,45.2,29.65,WNW,301,0.0,0.0,95,0.00,,,0.00,VWS V12.07,2013-10-11 11:57:00,
2013-10-11 05:03:00,46.2,44.9,29.65,WNW,300,0.0,0.0,95,0.00,,,0.00,VWS V12.07,2013-10-11 12:03:00,
2013-10-11 05:08:00,46.0,44.7,29.65,WNW,300,0.0,0.0,95,0.00,,,0.00,VWS V12.07,2013-10-11 12:08:00,
2013-10-11 05:14:00,45.5,43.9,29.65,WNW,301,0.0,0.0,94,0.00,,,0.00,VWS V12.07,2013-10-11 12:14:00,
2013-10-11 05:19:00,45.1,43.5,29.65,WNW,300,0.0,0.0,94,0.00,,,0.00,VWS V12.07,2013-10-11 12:19:00,
2013-10-11 05:25:00,44.6,43.0,29.65,WNW,300,0.0,0.0,94,0.00,,,0.00,VWS V12.07,2013-10-11 12:25:00,
2013-10-11 05:31:00,44.4,43.1,29.65,WNW,301,0.0,0.0,95,0.00,,,0.00,VWS V12.07,2013-10-11 12:31:00,
2013-10-11 05:36:00,44.6,43.3,29.65,WNW,300,0.0,0.0,95,0.00,,,0.00,VWS V12.07,2013-10-11 12:36:00,
2013-10-11 05:42:00,44.8,43.4,29.65,WNW,301,0.0,0.0,95,0.00,,,0.00,VWS V12.07,2013-10-11 12:42:00,
2013-10-11 05:47:00,45.1,44.1,29.68,SSW,199,0.0,0.0,96,0.00,,,0.00,VWS V12.07,2013-10-11 12:47:00,
2013-10-11 05:53:00,45.5,44.4,29.68,SSW,208,0.0,0.0,96,0.00,,,0.00,VWS V12.07,2013-10-11 12:53:00,
2013-10-11 05:58:00,45.5,44.4,29.68,WNW,294,0.0,0.0,96,0.00,,,0.00,VWS V12.07,2013-10-11 12:58:00,
2013-10-11 06:04:00,45.7,44.6,29.68,WNW,294,0.0,0.0,96,0.00,,,0.00,VWS V12.07,2013-10-11 13:04:00,
2013-10-11 06:09:00,45.7,44.6,29.68,WNW,294,0.0,0.0,96,0.00,,,0.00,VWS V12.07,2013-10-11 13:09:00,
2013-10-11 06:15:00,45.9,44.8,29.68,WNW,294,0.0,0.0,96,0.00,,,0.00,VWS V12.07,2013-10-11 13:15:00,
2013-10-11 06:20:00,45.9,44.8,29.68,WNW,294,0.0,0.0,96,0.00,,,0.00,VWS V12.07,2013-10-11 13:20:00,
2013-10-11 06:25:00,46.0,45.0,29.68,WNW,294,0.0,0.0,96,0.00,,,0.00,VWS V12.07,2013-10-11 13:25:00,
2013-10-11 06:31:00,46.0,45.0,29.68,WNW,294,0.0,0.0,96,0.00,,,0.00,VWS V12.07,2013-10-11 13:31:00,
2013-10-11 06:36:00,46.2,45.2,29.68,WNW,294,0.0,0.0,96,0.00,,,0.00,VWS V12.07,2013-10-11 13:36:00,
2013-10-11 06:42:00,46.4,45.3,29.68,WNW,294,0.0,0.0,96,0.00,,,0.00,VWS V12.07,2013-10-11 13:42:00,
2013-10-11 06:48:00,46.6,45.5,29.68,WNW,294,0.0,0.0,96,0.00,,,0.00,VWS V12.07,2013-10-11 13:48:00,
2013-10-11 06:53:00,46.6,45.5,29.68,WNW,294,0.0,0.0,96,0.00,,,0.00,VWS V12.07,2013-10-11 13:53:00,
2013-10-11 06:59:00,46.8,45.7,29.68,WNW,294,0.0,0.0,96,0.00,,,0.00,VWS V12.07,2013-10-11 13:59:00,
2013-10-11 07:04:00,46.8,45.7,29.68,WNW,294,0.0,0.0,96,0.00,,,0.00,VWS V12.07,2013-10-11 14:04:00,
2013-10-11 07:10:00,47.1,46.0,29.68,WNW,294,0.0,0.0,96,0.00,,,0.00,VWS V12.07,2013-10-11 14:10:00,
2013-10-11 07:15:00,47.1,46.0,29.68,WNW,294,0.0,0.0,96,0.00,,,0.00,VWS V12.07,2013-10-11 14:15:00,
2013-10-11 07:20:00,47.3,46.2,29.68,WNW,294,0.0,0.0,96,0.00,,,0.00,VWS V12.07,2013-10-11 14:20:00,
2013-10-11 07:26:00,47.3,46.2,29.68,WNW,294,0.0,0.0,96,0.00,,,0.00,VWS V12.07,2013-10-11 14:26:00,
2013-10-11 07:31:00,47.5,46.4,29.68,WNW,294,0.0,0.0,96,0.00,,,0.00,VWS V12.07,2013-10-11 14:31:00,
2013-10-11 07:37:00,47.5,46.4,29.68,WNW,294,0.0,0.0,96,0.00,,,0.00,VWS V12.07,2013-10-11 14:37:00,
2013-10-11 07:43:00,47.5,46.4,29.68,WNW,294,0.0,0.0,96,0.00,,,0.00,VWS V12.07,2013-10-11 14:43:00,
2013-10-11 07:48:00,47.7,46.6,29.68,East,82,0.0,0.0,96,0.00,,,0.00,VWS V12.07,2013-10-11 14:48:00,
2013-10-11 07:54:00,47.7,46.8,29.68,East,91,0.0,0.0,97,0.00,,,0.00,VWS V12.07,2013-10-11 14:54:00,
2013-10-11 07:59:00,47.7,46.8,29.68,ENE,78,0.0,0.0,97,0.00,,,0.00,VWS V12.07,2013-10-11 14:59:00,
2013-10-11 08:05:00,47.7,46.6,29.68,ESE,112,0.0,0.0,96,0.00,,,0.00,VWS V12.07,2013-10-11 15:05:00,
2013-10-11 08:10:00,47.7,46.6,29.68,East,92,0.0,0.0,96,0.00,,,0.00,VWS V12.07,2013-10-11 15:10:00,
2013-10-11 08:16:00,47.8,46.8,29.68,East,92,0.0,0.0,96,0.00,,,0.00,VWS V12.07,2013-10-11 15:16:00,
2013-10-11 08:22:00,47.8,46.8,29.68,East,91,0.0,0.0,96,0.00,,,0.00,VWS V12.07,2013-10-11 15:22:00,
2013-10-11 08:27:00,48.0,47.2,29.68,East,92,0.0,0.0,97,0.00,,,0.00,VWS V12.07,2013-10-11 15:27:00,
2013-10-11 08:32:00,48.4,47.3,29.68,East,91,0.0,0.0,96,0.00,,,0.00,VWS V12.07,2013-10-11 15:32:00,
2013-10-11 08:38:00,48.6,47.5,29.68,East,92,0.0,0.0,96,0.00,,,0.00,VWS V12.07,2013-10-11 15:38:00,
2013-10-11 08:44:00,48.7,47.7,29.68,East,92,0.0,0.0,96,0.00,,,0.00,VWS V12.07,2013-10-11 15:44:00,
2013-10-11 08:49:00,49.1,48.3,29.68,East,92,0.0,0.0,97,0.00,,,0.00,VWS V12.07,2013-10-11 15:49:00,
2013-10-11 08:55:00,49.3,48.2,29.68,East,92,0.0,0.0,96,0.00,,,0.00,VWS V12.07,2013-10-11 15:55:00,
2013-10-11 09:01:00,49.3,48.2,29.68,East,92,0.0,0.0,96,0.00,,,0.00,VWS V12.07,2013-10-11 16:01:00,
2013-10-11 09:07:00,49.6,48.5,29.68,East,91,0.0,0.0,96,0.00,,,0.00,VWS V12.07,2013-10-11 16:07:00,
2013-10-11 09:12:00,49.8,48.7,29.68,East,92,0.0,0.0,96,0.00,,,0.00,VWS V12.07,2013-10-11 16:12:00,
2013-10-11 09:18:00,49.6,48.5,29.68,ENE,62,0.0,0.0,96,0.00,,,0.00,VWS V12.07,2013-10-11 16:18:00,
2013-10-11 09:24:00,49.5,48.4,29.68,NE,45,0.0,0.0,96,0.00,,,0.00,VWS V12.07,2013-10-11 16:24:00,
2013-10-11 09:29:00,49.6,48.5,29.68,NE,45,0.0,0.0,96,0.00,,,0.00,VWS V12.07,2013-10-11 16:29:00,
2013-10-11 09:34:00,49.8,48.7,29.68,NE,45,0.0,0.0,96,0.00,,,0.00,VWS V12.07,2013-10-11 16:34:00,
2013-10-11 09:40:00,50.0,48.9,29.68,NE,45,0.0,0.0,96,0.00,,,0.00,VWS V12.07,2013-10-11 16:40:00,
2013-10-11 09:45:00,50.2,49.1,29.68,NE,45,0.0,0.0,96,0.00,,,0.00,VWS V12.07,2013-10-11 16:45:00,
2013-10-11 09:51:00,50.4,49.3,29.68,ENE,68,0.0,0.0,96,0.00,,,0.00,VWS V12.07,2013-10-11 16:51:00,
2013-10-11 09:56:00,50.4,49.3,29.68,ENE,77,0.0,0.0,96,0.00,,,0.00,VWS V12.07,2013-10-11 16:56:00,
2013-10-11 10:02:00,50.5,49.5,29.71,East,96,0.0,0.0,96,0.00,,,0.00,VWS V12.07,2013-10-11 17:02:00,
2013-10-11 10:08:00,50.9,49.8,29.71,East,81,0.0,0.0,96,0.00,,,0.00,VWS V12.07,2013-10-11 17:08:00,
2013-10-11 10:13:00,51.3,50.2,29.71,East,90,0.0,0.0,96,0.00,,,0.00,VWS V12.07,2013-10-11 17:13:00,
2013-10-11 10:18:00,51.6,50.5,29.71,East,91,0.0,0.0,96,0.00,,,0.00,VWS V12.07,2013-10-11 17:18:00,
2013-10-11 10:23:00,52.2,51.1,29.71,East,92,0.0,0.0,96,0.00,,,0.00,VWS V12.07,2013-10-11 17:23:00,
2013-10-11 10:29:00,52.7,51.3,29.71,East,91,0.0,0.0,95,0.00,,,0.00,VWS V12.07,2013-10-11 17:29:00,
2013-10-11 10:34:00,53.2,51.8,29.71,SSW,211,0.0,0.0,95,0.00,,,0.00,VWS V12.07,2013-10-11 17:34:00,
2013-10-11 10:40:00,53.6,52.2,29.71,SSW,211,0.0,0.0,95,0.00,,,0.00,VWS V12.07,2013-10-11 17:40:00,
2013-10-11 10:45:00,54.0,52.6,29.71,SSW,211,0.0,0.0,95,0.00,,,0.00,VWS V12.07,2013-10-11 17:45:00,
2013-10-11 10:51:00,54.1,52.5,29.71,East,95,0.0,0.0,94,0.00,,,0.00,VWS V12.07,2013-10-11 17:51:00,
2013-10-11 10:57:00,54.5,52.8,29.71,East,79,0.0,0.0,94,0.00,,,0.00,VWS V12.07,2013-10-11 17:57:00,
2013-10-11 11:02:00,55.0,53.3,29.71,East,79,0.0,0.0,94,0.00,,,0.00,VWS V12.07,2013-10-11 18:02:00,
2013-10-11 11:08:00,55.8,53.8,29.71,SW,222,0.0,0.0,93,0.00,,,0.00,VWS V12.07,2013-10-11 18:08:00,
2013-10-11 11:13:00,55.6,53.3,29.71,East,101,0.0,0.0,92,0.00,,,0.00,VWS V12.07,2013-10-11 18:13:00,
2013-10-11 11:18:00,55.6,53.0,29.71,ENE,71,0.0,0.0,91,0.00,,,0.00,VWS V12.07,2013-10-11 18:18:00,
2013-10-11 11:23:00,55.4,52.5,29.71,SW,216,0.0,0.0,90,0.00,,,0.00,VWS V12.07,2013-10-11 18:23:00,
2013-10-11 11:29:00,55.4,52.2,29.71,ESE,110,0.0,0.0,89,0.00,,,0.00,VWS V12.07,2013-10-11 18:29:00,
2013-10-11 11:34:00,55.8,52.0,29.71,East,95,0.0,0.0,87,0.00,,,0.00,VWS V12.07,2013-10-11 18:34:00,
2013-10-11 11:40:00,56.1,52.0,29.71,East,80,0.0,0.0,86,0.00,,,0.00,VWS V12.07,2013-10-11 18:40:00,
2013-10-11 11:45:00,56.3,51.5,29.71,East,80,0.0,0.0,84,0.00,,,0.00,VWS V12.07,2013-10-11 18:45:00,
2013-10-11 11:51:00,56.5,51.1,29.71,South,185,0.0,0.0,82,0.00,,,0.00,VWS V12.07,2013-10-11 18:51:00,
2013-10-11 11:57:00,57.0,51.3,29.71,ENE,72,0.0,0.0,81,0.00,,,0.00,VWS V12.07,2013-10-11 18:57:00,
2013-10-11 12:02:00,57.9,51.1,29.71,SE,130,0.0,0.0,78,0.00,,,0.00,VWS V12.07,2013-10-11 19:02:00,
2013-10-11 12:08:00,58.8,50.6,29.71,ENE,72,0.0,0.0,74,0.00,,,0.00,VWS V12.07,2013-10-11 19:08:00,
2013-10-11 12:13:00,58.8,49.1,29.71,ESE,111,0.0,0.0,70,0.00,,,0.00,VWS V12.07,2013-10-11 19:13:00,
2013-10-11 12:19:00,58.1,47.2,29.71,ESE,112,0.0,0.0,67,0.00,,,0.00,VWS V12.07,2013-10-11 19:19:00,
2013-10-11 12:24:00,57.6,45.1,29.71,SE,134,0.0,0.0,63,0.00,,,0.00,VWS V12.07,2013-10-11 19:24:00,
2013-10-11 12:30:00,57.6,45.5,29.68,SSE,155,0.0,0.0,64,0.00,,,0.00,VWS V12.07,2013-10-11 19:30:00,
2013-10-11 12:35:00,57.7,45.2,29.68,SSE,155,0.0,0.0,63,0.00,,,0.00,VWS V12.07,2013-10-11 19:35:00,
2013-10-11 12:41:00,58.1,45.6,29.68,SW,229,0.0,0.0,63,0.00,,,0.00,VWS V12.07,2013-10-11 19:41:00,
2013-10-11 12:46:00,58.3,45.3,29.68,ESE,117,0.0,0.0,62,0.00,,,0.00,VWS V12.07,2013-10-11 19:46:00,
2013-10-11 12:52:00,58.5,45.5,29.68,SW,230,0.0,0.0,62,0.00,,,0.00,VWS V12.07,2013-10-11 19:52:00,
2013-10-11 12:57:00,58.5,44.6,29.68,SSW,210,0.0,0.0,60,0.00,,,0.00,VWS V12.07,2013-10-11 19:57:00,
2013-10-11 13:03:00,58.8,44.5,29.68,WSW,242,0.0,0.0,59,0.00,,,0.00,VWS V12.07,2013-10-11 20:03:00,
2013-10-11 13:08:00,59.2,44.9,29.68,WSW,258,0.0,0.0,59,0.00,,,0.00,VWS V12.07,2013-10-11 20:08:00,
2013-10-11 13:14:00,59.5,44.8,29.68,SW,228,0.0,0.0,58,0.00,,,0.00,VWS V12.07,2013-10-11 20:14:00,
2013-10-11 13:19:00,59.7,43.1,29.68,SW,228,0.0,0.0,54,0.00,,,0.00,VWS V12.07,2013-10-11 20:19:00,
2013-10-11 13:25:00,59.5,42.4,29.68,South,191,0.0,0.0,53,0.00,,,0.00,VWS V12.07,2013-10-11 20:25:00,
2013-10-11 13:30:00,59.2,41.6,29.68,WSW,241,0.0,0.0,52,0.00,,,0.00,VWS V12.07,2013-10-11 20:30:00,
2013-10-11 13:36:00,58.6,41.1,29.68,SW,234,0.0,0.0,52,0.00,,,0.00,VWS V12.07,2013-10-11 20:36:00,
2013-10-11 13:42:00,58.5,41.9,29.68,NW,321,0.0,0.0,54,0.00,,,0.00,VWS V12.07,2013-10-11 20:42:00,
2013-10-11 13:47:00,58.1,42.0,29.68,West,266,0.0,0.0,55,0.00,,,0.00,VWS V12.07,2013-10-11 20:47:00,
2013-10-11 13:52:00,57.9,42.3,29.68,WNW,297,0.0,0.0,56,0.00,,,0.00,VWS V12.07,2013-10-11 20:52:00,
2013-10-11 13:58:00,57.4,42.3,29.68,West,272,0.0,0.0,57,0.00,,,0.00,VWS V12.07,2013-10-11 20:58:00,
2013-10-11 14:04:00,57.2,42.6,29.68,SSW,212,0.0,0.0,58,0.00,,,0.00,VWS V12.07,2013-10-11 21:04:00,
2013-10-11 14:09:00,57.0,43.3,29.68,SW,218,0.0,0.0,60,0.00,,,0.00,VWS V12.07,2013-10-11 21:09:00,
2013-10-11 14:15:00,57.0,43.3,29.68,West,274,0.0,0.0,60,0.00,,,0.00,VWS V12.07,2013-10-11 21:15:00,
2013-10-11 14:20:00,57.2,43.0,29.68,NW,309,0.0,0.0,59,0.00,,,0.00,VWS V12.07,2013-10-11 21:20:00,
2013-10-11 14:25:00,57.2,43.5,29.68,WSW,250,0.0,0.0,60,0.00,,,0.00,VWS V12.07,2013-10-11 21:25:00,
2013-10-11 14:30:00,57.4,42.7,29.68,WNW,297,0.0,0.0,58,0.00,,,0.00,VWS V12.07,2013-10-11 21:30:00,
2013-10-11 14:36:00,57.4,43.2,29.68,SW,225,0.0,0.0,59,0.00,,,0.00,VWS V12.07,2013-10-11 21:36:00,
2013-10-11 14:42:00,57.6,42.9,29.68,WNW,303,0.0,0.0,58,0.00,,,0.00,VWS V12.07,2013-10-11 21:42:00,
2013-10-11 14:47:00,57.4,42.7,29.68,WSW,237,0.0,0.0,58,0.00,,,0.00,VWS V12.07,2013-10-11 21:47:00,
2013-10-11 14:53:00,57.2,42.6,29.68,WSW,237,0.0,0.0,58,0.00,,,0.00,VWS V12.07,2013-10-11 21:53:00,
2013-10-11 14:58:00,57.0,42.4,29.68,WNW,298,0.0,0.0,58,0.00,,,0.00,VWS V12.07,2013-10-11 21:58:00,
2013-10-11 15:04:00,56.5,41.9,29.68,NNW,330,0.0,0.0,58,0.00,,,0.00,VWS V12.07,2013-10-11 22:04:00,
2013-10-11 15:09:00,56.1,42.0,29.68,WNW,299,0.0,0.0,59,0.00,,,0.00,VWS V12.07,2013-10-11 22:09:00,
2013-10-11 15:15:00,55.9,41.8,29.68,West,275,0.0,0.0,59,0.00,,,0.00,VWS V12.07,2013-10-11 22:15:00,
2013-10-11 15:20:00,55.2,41.6,29.68,NW,308,0.0,0.0,60,0.00,,,0.00,VWS V12.07,2013-10-11 22:20:00,
2013-10-11 15:25:00,54.9,41.2,29.68,WNW,301,0.0,0.0,60,0.00,,,0.00,VWS V12.07,2013-10-11 22:25:00,
2013-10-11 15:31:00,54.5,41.8,29.68,WNW,287,0.0,0.0,62,0.00,,,0.00,VWS V12.07,2013-10-11 22:31:00,
2013-10-11 15:36:00,54.5,42.2,29.68,NW,320,0.0,0.0,63,0.00,,,0.00,VWS V12.07,2013-10-11 22:36:00,
2013-10-11 15:41:00,54.7,42.3,29.68,NW,323,0.0,0.0,63,0.00,,,0.00,VWS V12.07,2013-10-11 22:41:00,
2013-10-11 15:47:00,54.9,42.5,29.68,WNW,303,0.0,0.0,63,0.00,,,0.00,VWS V12.07,2013-10-11 22:47:00,
2013-10-11 15:52:00,54.9,42.1,29.68,NW,304,0.0,0.0,62,0.00,,,0.00,VWS V12.07,2013-10-11 22:52:00,
2013-10-11 15:58:00,54.7,42.3,29.68,NW,306,0.0,0.0,63,0.00,,,0.00,VWS V12.07,2013-10-11 22:58:00,
2013-10-11 16:03:00,54.9,42.5,29.68,NW,308,0.0,0.0,63,0.00,,,0.00,VWS V12.07,2013-10-11 23:03:00,
2013-10-11 16:09:00,54.7,42.3,29.68,WNW,283,0.0,0.0,63,0.00,,,0.00,VWS V12.07,2013-10-11 23:09:00,
2013-10-11 16:15:00,54.5,42.2,29.68,NW,304,0.0,0.0,63,0.00,,,0.00,VWS V12.07,2013-10-11 23:15:00,
2013-10-11 16:20:00,54.1,41.8,29.68,NW,324,0.0,0.0,63,0.00,,,0.00,VWS V12.07,2013-10-11 23:20:00,
2013-10-11 16:26:00,53.8,41.9,29.68,WNW,288,0.0,0.0,64,0.00,,,0.00,VWS V12.07,2013-10-11 23:26:00,
2013-10-11 16:31:00,53.8,42.3,29.68,WNW,301,0.0,0.0,65,0.00,,,0.00,VWS V12.07,2013-10-11 23:31:00,
2013-10-11 16:37:00,54.0,42.5,29.68,WNW,300,0.0,0.0,65,0.00,,,0.00,VWS V12.07,2013-10-11 23:37:00,
2013-10-11 16:42:00,54.3,42.8,29.68,WNW,300,0.0,0.0,65,0.00,,,0.00,VWS V12.07,2013-10-11 23:42:00,
2013-10-11 16:48:00,54.3,42.8,29.68,WSW,258,0.0,0.0,65,0.00,,,0.00,VWS V12.07,2013-10-11 23:48:00,
2013-10-11 16:53:00,54.3,42.8,29.68,WNW,297,0.0,0.0,65,0.00,,,0.00,VWS V12.07,2013-10-11 23:53:00,
2013-10-11 16:59:00,54.3,42.8,29.68,West,277,0.0,0.0,65,0.00,,,0.00,VWS V12.07,2013-10-11 23:59:00,
2013-10-11 17:04:00,54.1,42.2,29.68,West,273,0.0,0.0,64,0.00,,,0.00,VWS V12.07,2013-10-12 00:04:00,
2013-10-11 17:10:00,54.1,42.2,29.68,West,273,0.0,0.0,64,0.00,,,0.00,VWS V12.07,2013-10-12 00:10:00,
2013-10-11 17:15:00,54.1,42.2,29.68,West,279,0.0,0.0,64,0.00,,,0.00,VWS V12.07,2013-10-12 00:15:00,
2013-10-11 17:21:00,54.0,42.1,29.68,West,279,0.0,0.0,64,0.00,,,0.00,VWS V12.07,2013-10-12 00:21:00,
2013-10-11 17:27:00,53.8,42.3,29.68,West,279,0.0,0.0,65,0.00,,,0.00,VWS V12.07,2013-10-12 00:27:00,
2013-10-11 17:32:00,54.0,42.5,29.65,West,279,0.0,0.0,65,0.00,,,0.00,VWS V12.07,2013-10-12 00:32:00,
2013-10-11 17:38:00,54.1,42.7,29.65,West,279,0.0,0.0,65,0.00,,,0.00,VWS V12.07,2013-10-12 00:38:00,
2013-10-11 17:43:00,54.1,42.7,29.65,West,279,0.0,0.0,65,0.00,,,0.00,VWS V12.07,2013-10-12 00:43:00,
2013-10-11 17:49:00,54.0,42.5,29.65,West,279,0.0,0.0,65,0.00,,,0.00,VWS V12.07,2013-10-12 00:49:00,
2013-10-11 17:54:00,53.8,42.3,29.65,West,279,0.0,0.0,65,0.00,,,0.00,VWS V12.07,2013-10-12 00:54:00,
2013-10-11 18:00:00,53.6,42.1,29.65,West,279,0.0,0.0,65,0.00,,,0.00,VWS V12.07,2013-10-12 01:00:00,
2013-10-11 18:05:00,53.6,42.5,29.65,West,279,0.0,0.0,66,0.00,,,0.00,VWS V12.07,2013-10-12 01:05:00,
2013-10-11 18:11:00,53.2,42.2,29.65,West,279,0.0,0.0,66,0.00,,,0.00,VWS V12.07,2013-10-12 01:11:00,
2013-10-11 18:16:00,53.1,42.4,29.65,West,279,0.0,0.0,67,0.00,,,0.00,VWS V12.07,2013-10-12 01:16:00,
2013-10-11 18:21:00,52.7,42.1,29.65,West,279,0.0,0.0,67,0.00,,,0.00,VWS V12.07,2013-10-12 01:21:00,
2013-10-11 18:26:00,52.5,42.3,29.65,West,279,0.0,0.0,68,0.00,,,0.00,VWS V12.07,2013-10-12 01:26:00,
2013-10-11 18:32:00,52.2,42.3,29.65,West,279,0.0,0.0,69,0.00,,,0.00,VWS V12.07,2013-10-12 01:32:00,
2013-10-11 18:37:00,52.0,42.1,29.65,West,280,0.0,0.0,69,0.00,,,0.00,VWS V12.07,2013-10-12 01:37:00,
2013-10-11 18:43:00,51.4,42.0,29.65,West,279,0.0,0.0,70,0.00,,,0.00,VWS V12.07,2013-10-12 01:43:00,
2013-10-11 18:49:00,50.9,41.8,29.65,West,279,0.0,0.0,71,0.00,,,0.00,VWS V12.07,2013-10-12 01:49:00,
2013-10-11 18:54:00,50.5,41.5,29.65,West,279,0.0,0.0,71,0.00,,,0.00,VWS V12.07,2013-10-12 01:54:00,
2013-10-11 19:00:00,50.2,41.5,29.65,West,279,0.0,0.0,72,0.00,,,0.00,VWS V12.07,2013-10-12 02:00:00,
2013-10-11 19:05:00,49.8,41.5,29.65,West,279,0.0,0.0,73,0.00,,,0.00,VWS V12.07,2013-10-12 02:05:00,
2013-10-11 19:11:00,49.5,41.5,29.65,West,279,0.0,0.0,74,0.00,,,0.00,VWS V12.07,2013-10-12 02:11:00,
2013-10-11 19:16:00,49.5,41.9,29.65,West,280,0.0,0.0,75,0.00,,,0.00,VWS V12.07,2013-10-12 02:16:00,
2013-10-11 19:21:00,49.5,41.9,29.65,West,279,0.0,0.0,75,0.00,,,0.00,VWS V12.07,2013-10-12 02:21:00,
2013-10-11 19:26:00,49.3,41.7,29.65,West,279,0.0,0.0,75,0.00,,,0.00,VWS V12.07,2013-10-12 02:26:00,
2013-10-11 19:32:00,49.1,41.9,29.65,West,279,0.0,0.0,76,0.00,,,0.00,VWS V12.07,2013-10-12 02:32:00,
2013-10-11 19:37:00,48.9,41.7,29.65,West,279,0.0,0.0,76,0.00,,,0.00,VWS V12.07,2013-10-12 02:37:00,
2013-10-11 19:43:00,48.7,41.5,29.65,West,279,0.0,0.0,76,0.00,,,0.00,VWS V12.07,2013-10-12 02:43:00,
2013-10-11 19:49:00,48.6,41.7,29.65,West,279,0.0,0.0,77,0.00,,,0.00,VWS V12.07,2013-10-12 02:49:00,
2013-10-11 19:55:00,48.4,41.8,29.65,West,279,0.0,0.0,78,0.00,,,0.00,VWS V12.07,2013-10-12 02:55:00,
2013-10-11 20:01:00,48.6,42.3,29.65,West,279,0.0,0.0,79,0.00,,,0.00,VWS V12.07,2013-10-12 03:01:00,
2013-10-11 20:06:00,48.6,42.3,29.65,West,279,0.0,0.0,79,0.00,,,0.00,VWS V12.07,2013-10-12 03:06:00,
2013-10-11 20:12:00,48.6,42.7,29.65,West,279,0.0,0.0,80,0.00,,,0.00,VWS V12.07,2013-10-12 03:12:00,
2013-10-11 20:17:00,48.7,42.9,29.65,West,279,0.0,0.0,80,0.00,,,0.00,VWS V12.07,2013-10-12 03:17:00,
2013-10-11 20:23:00,48.7,43.2,29.65,West,279,0.0,0.0,81,0.00,,,0.00,VWS V12.07,2013-10-12 03:23:00,
2013-10-11 20:28:00,48.6,43.0,29.65,West,279,0.0,0.0,81,0.00,,,0.00,VWS V12.07,2013-10-12 03:28:00,
2013-10-11 20:34:00,48.6,43.0,29.65,West,279,0.0,0.0,81,0.00,,,0.00,VWS V12.07,2013-10-12 03:34:00,
2013-10-11 20:39:00,48.6,43.3,29.65,West,279,0.0,0.0,82,0.00,,,0.00,VWS V12.07,2013-10-12 03:39:00,
2013-10-11 20:45:00,48.6,43.3,29.65,West,279,0.0,0.0,82,0.00,,,0.00,VWS V12.07,2013-10-12 03:45:00,
2013-10-11 20:50:00,48.6,43.6,29.65,West,279,0.0,0.0,83,0.00,,,0.00,VWS V12.07,2013-10-12 03:50:00,
2013-10-11 20:55:00,48.6,43.6,29.65,West,279,0.0,0.0,83,0.00,,,0.00,VWS V12.07,2013-10-12 03:55:00,
2013-10-11 21:00:00,48.6,43.6,29.65,West,279,0.0,0.0,83,0.00,,,0.00,VWS V12.07,2013-10-12 04:00:00,
2013-10-11 21:01:00,48.6,43.6,29.65,West,279,0.0,0.0,83,0.00,,,0.00,VWS V12.07,2013-10-12 04:01:00,
2013-10-11 21:02:00,48.6,43.6,29.65,West,279,0.0,0.0,83,0.00,,,0.00,VWS V12.07,2013-10-12 04:02:00,
2013-10-11 21:04:00,48.6,43.6,29.65,West,279,0.0,0.0,83,0.00,,,0.00,VWS V12.07,2013-10-12 04:04:00,
2013-10-11 21:05:00,48.6,43.6,29.65,West,279,0.0,0.0,83,0.00,,,0.00,VWS V12.07,2013-10-12 04:05:00,
2013-10-11 21:06:00,48.6,43.6,29.65,West,279,0.0,0.0,83,0.00,,,0.00,VWS V12.07,2013-10-12 04:06:00,
2013-10-11 21:11:00,48.7,44.1,29.65,West,280,0.0,0.0,84,0.00,,,0.00,VWS V12.07,2013-10-12 04:11:00,
2013-10-11 21:17:00,48.7,44.1,29.65,West,279,0.0,0.0,84,0.00,,,0.00,VWS V12.07,2013-10-12 04:17:00,
2013-10-11 21:18:00,48.7,44.1,29.65,West,279,0.0,0.0,84,0.00,,,0.00,VWS V12.07,2013-10-12 04:18:00,
2013-10-11 21:23:00,48.7,44.1,29.65,West,279,0.0,0.0,84,0.00,,,0.00,VWS V12.07,2013-10-12 04:23:00,
2013-10-11 21:29:00,48.7,44.1,29.65,West,279,0.0,0.0,84,0.00,,,0.00,VWS V12.07,2013-10-12 04:29:00,
2013-10-11 21:34:00,48.7,44.1,29.65,West,280,0.0,0.0,84,0.00,,,0.00,VWS V12.07,2013-10-12 04:34:00,
2013-10-11 21:40:00,48.6,44.3,29.65,West,279,0.0,0.0,85,0.00,,,0.00,VWS V12.07,2013-10-12 04:40:00,
2013-10-11 21:45:00,48.6,44.3,29.65,West,279,0.0,0.0,85,0.00,,,0.00,VWS V12.07,2013-10-12 04:45:00,
2013-10-11 21:51:00,48.6,44.3,29.65,West,279,0.0,0.0,85,0.00,,,0.00,VWS V12.07,2013-10-12 04:51:00,
2013-10-11 21:57:00,48.4,44.1,29.65,West,279,0.0,0.0,85,0.00,,,0.00,VWS V12.07,2013-10-12 04:57:00,
2013-10-11 22:02:00,48.4,44.1,29.65,West,279,0.0,0.0,85,0.00,,,0.00,VWS V12.07,2013-10-12 05:02:00,
2013-10-11 22:08:00,48.2,43.9,29.65,West,279,0.0,0.0,85,0.00,,,0.00,VWS V12.07,2013-10-12 05:08:00,
2013-10-11 22:13:00,48.2,44.2,29.65,West,280,0.0,0.0,86,0.00,,,0.00,VWS V12.07,2013-10-12 05:13:00,
2013-10-11 22:19:00,48.2,44.2,29.65,West,279,0.0,0.0,86,0.00,,,0.00,VWS V12.07,2013-10-12 05:19:00,
2013-10-11 22:24:00,48.2,44.2,29.65,West,280,0.0,0.0,86,0.00,,,0.00,VWS V12.07,2013-10-12 05:24:00,
2013-10-11 22:29:00,48.2,44.2,29.65,West,279,0.0,0.0,86,0.00,,,0.00,VWS V12.07,2013-10-12 05:29:00,
2013-10-11 22:34:00,48.2,44.2,29.65,West,279,0.0,0.0,86,0.00,,,0.00,VWS V12.07,2013-10-12 05:34:00,
2013-10-11 22:40:00,48.0,44.3,29.65,West,280,0.0,0.0,87,0.00,,,0.00,VWS V12.07,2013-10-12 05:40:00,
2013-10-11 22:45:00,48.0,44.3,29.65,West,279,0.0,0.0,87,0.00,,,0.00,VWS V12.07,2013-10-12 05:45:00,
2013-10-11 22:51:00,48.4,45.0,29.65,West,280,0.0,0.0,88,0.00,,,0.00,VWS V12.07,2013-10-12 05:51:00,
2013-10-11 22:56:00,48.6,45.2,29.65,West,279,0.0,0.0,88,0.00,,,0.00,VWS V12.07,2013-10-12 05:56:00,
2013-10-11 23:02:00,48.7,45.3,29.65,West,279,0.0,0.0,88,0.00,,,0.00,VWS V12.07,2013-10-12 06:02:00,
2013-10-11 23:08:00,48.7,45.3,29.65,West,279,0.0,0.0,88,0.00,,,0.00,VWS V12.07,2013-10-12 06:08:00,
2013-10-11 23:13:00,48.7,45.3,29.65,West,279,0.0,0.0,88,0.00,,,0.00,VWS V12.07,2013-10-12 06:13:00,
2013-10-11 23:19:00,48.7,45.3,29.65,West,279,0.0,0.0,88,0.00,,,0.00,VWS V12.07,2013-10-12 06:19:00,
2013-10-11 23:24:00,48.7,45.3,29.65,West,279,0.0,0.0,88,0.00,,,0.00,VWS V12.07,2013-10-12 06:24:00,
2013-10-11 23:30:00,48.7,45.3,29.65,West,279,0.0,0.0,88,0.00,,,0.00,VWS V12.07,2013-10-12 06:30:00,
2013-10-11 23:36:00,48.7,45.7,29.65,West,280,0.0,0.0,89,0.00,,,0.00,VWS V12.07,2013-10-12 06:36:00,
2013-10-11 23:41:00,48.7,45.7,29.65,West,279,0.0,0.0,89,0.00,,,0.00,VWS V12.07,2013-10-12 06:41:00,
2013-10-11 23:47:00,48.6,45.5,29.62,ENE,58,0.0,0.0,89,0.00,,,0.00,VWS V12.07,2013-10-12 06:47:00,
2013-10-11 23:52:00,48.6,45.5,29.62,East,81,0.0,0.0,89,0.00,,,0.00,VWS V12.07,2013-10-12 06:52:00,
2013-10-11 23:58:00,48.4,45.3,29.62,ENE,73,0.0,0.0,89,0.00,,,0.00,VWS V12.07,2013-10-12 06:58:00,